Time;durP1;ratioP1;P1;durP2;ratioP2;P2;SDS_P1;SDS_P2;PMS_P1;PMS_P2;Temp;Humidity;BMP_temperature;BMP_pressure;BME280_temperature;BME280_humidity;BME280_pressure;Samples;Min_cycle;Max_cycle;Signal;HPM_P1;HPM_P2
2021/03/19 00:01:19;;;;;;;2.53;1.50;;;4.50;99.90;;;;;;5065394;28;20251;-77
2021/03/19 00:03:46;;;;;;;2.40;1.70;;;4.50;99.90;;;;;;5064610;28;20202;-78
2021/03/19 00:06:12;;;;;;;4.50;1.87;;;4.40;99.90;;;;;;5075788;28;20751;-83
2021/03/19 00:08:39;;;;;;;4.07;1.60;;;4.40;99.90;;;;;;5084776;28;20200;-77
2021/03/19 00:11:05;;;;;;;2.63;1.70;;;4.40;99.90;;;;;;5083273;28;20223;-80
2021/03/19 00:13:31;;;;;;;3.70;2.23;;;4.40;99.90;;;;;;5082876;28;20266;-83
2021/03/19 00:15:58;;;;;;;3.93;1.97;;;4.40;99.90;;;;;;5074261;28;20239;-82
2021/03/19 00:18:24;;;;;;;4.73;1.90;;;4.30;99.90;;;;;;5062484;28;20224;-77
2021/03/19 00:20:51;;;;;;;4.73;1.90;;;4.30;99.90;;;;;;5063540;28;20980;-77
2021/03/19 00:23:18;;;;;;;3.83;1.87;;;4.30;99.90;;;;;;5062803;28;20213;-76
2021/03/19 00:25:44;;;;;;;5.17;2.00;;;4.30;99.90;;;;;;5062985;28;20205;-76
2021/03/19 00:28:14;;;;;;;7.13;2.13;;;4.20;99.90;;;;;;5062797;28;20213;-77
2021/03/19 00:30:42;;;;;;;3.40;1.73;;;4.10;99.90;;;;;;5063176;28;20212;-82
2021/03/19 00:33:08;;;;;;;5.00;1.83;;;4.10;99.90;;;;;;5065325;28;20193;-77
2021/03/19 00:35:35;;;;;;;5.87;2.00;;;4.10;99.90;;;;;;5063189;28;20205;-77
2021/03/19 00:38:02;;;;;;;7.83;2.10;;;4.10;99.90;;;;;;5062945;28;20205;-77
2021/03/19 00:40:29;;;;;;;2.77;2.00;;;4.00;99.90;;;;;;5065434;28;20235;-78
2021/03/19 00:42:56;;;;;;;3.57;1.80;;;4.00;99.90;;;;;;5083398;28;20207;-77
2021/03/19 00:45:24;;;;;;;3.87;2.07;;;3.90;99.90;;;;;;5082821;28;20201;-78
2021/03/19 00:47:51;;;;;;;3.90;2.20;;;3.90;99.90;;;;;;5081323;28;20208;-77
2021/03/19 00:50:20;;;;;;;7.27;2.40;;;3.90;99.90;;;;;;5067706;28;20208;-79
2021/03/19 00:52:47;;;;;;;2.60;2.10;;;3.90;99.90;;;;;;5082529;28;20907;-76
2021/03/19 00:55:15;;;;;;;5.60;2.17;;;3.90;99.90;;;;;;5082570;28;20243;-77
2021/03/19 00:57:41;;;;;;;7.00;2.60;;;3.90;99.90;;;;;;5081917;28;20205;-76
2021/03/19 01:00:10;;;;;;;7.40;2.13;;;3.90;99.90;;;;;;5082996;28;20319;-78
2021/03/19 01:02:36;;;;;;;6.17;2.40;;;3.80;99.90;;;;;;5082144;28;20204;-79
2021/03/19 01:05:04;;;;;;;5.30;1.93;;;3.70;99.90;;;;;;5075819;28;20201;-76
2021/03/19 01:07:31;;;;;;;2.97;2.17;;;3.70;99.90;;;;;;5062172;28;20205;-77
2021/03/19 01:09:57;;;;;;;4.97;2.03;;;3.70;99.90;;;;;;5064250;28;20549;-76
2021/03/19 01:12:24;;;;;;;3.80;2.10;;;3.70;99.90;;;;;;5062215;28;20235;-76
2021/03/19 01:14:50;;;;;;;3.13;1.73;;;3.70;99.90;;;;;;5062787;28;20209;-76
2021/03/19 01:17:16;;;;;;;4.20;2.33;;;3.70;99.90;;;;;;5063244;28;20568;-76
2021/03/19 01:19:43;;;;;;;7.17;2.13;;;3.60;99.90;;;;;;5061748;28;20209;-76
2021/03/19 01:22:09;;;;;;;4.93;2.00;;;3.60;99.90;;;;;;5062797;28;20233;-77
2021/03/19 01:24:35;;;;;;;5.87;2.00;;;3.60;99.90;;;;;;5062524;28;20204;-76
2021/03/19 01:27:02;;;;;;;3.70;1.80;;;3.60;99.90;;;;;;5062329;28;20209;-76
2021/03/19 01:29:29;;;;;;;5.47;2.50;;;3.60;99.90;;;;;;5065084;28;20216;-77
2021/03/19 01:31:55;;;;;;;4.03;1.90;;;3.50;99.90;;;;;;5066691;28;20928;-76
2021/03/19 01:34:21;;;;;;;7.97;2.53;;;3.50;99.90;;;;;;5082216;28;20608;-77
2021/03/19 01:36:48;;;;;;;3.07;1.97;;;3.40;99.90;;;;;;5086425;28;20192;-76
2021/03/19 01:39:14;;;;;;;4.80;2.17;;;3.40;99.90;;;;;;5086193;28;20212;-76
2021/03/19 01:41:44;;;;;;;5.63;2.20;;;3.50;99.90;;;;;;5068150;28;20227;-77
2021/03/19 01:44:11;;;;;;;6.80;1.83;;;3.40;99.90;;;;;;5065504;28;20228;-77
2021/03/19 01:47:15;;;;;;;3.80;1.70;;;3.40;99.90;;;;;;5068523;28;20259;-83
2021/03/19 01:50:31;;;;;;;5.87;2.43;;;3.40;99.90;;;;;;5071021;28;20201;-76
2021/03/19 01:53:40;;;;;;;3.10;2.10;;;3.40;99.90;;;;;;4989147;28;20243;-81
2021/03/19 01:56:44;;;;;;;5.37;2.10;;;3.30;99.90;;;;;;4993697;28;20348;-80
2021/03/19 01:59:48;;;;;;;5.70;2.03;;;3.30;99.90;;;;;;5084211;28;20222;-77
2021/03/19 02:03:06;;;;;;;7.00;2.53;;;3.30;99.90;;;;;;5086226;28;20232;-78
2021/03/19 02:06:09;;;;;;;4.43;1.80;;;3.20;99.90;;;;;;5004578;28;20211;-79
2021/03/19 02:09:09;;;;;;;3.37;1.83;;;3.20;99.90;;;;;;5002640;28;20634;-77
2021/03/19 02:12:12;;;;;;;9.67;2.50;;;3.20;99.90;;;;;;5034732;28;20209;-78
2021/03/19 02:15:16;;;;;;;5.10;1.67;;;3.10;99.90;;;;;;5064885;28;20277;-79
2021/03/19 02:18:20;;;;;;;5.93;2.03;;;3.20;99.90;;;;;;5072562;28;20212;-86
2021/03/19 02:21:23;;;;;;;6.70;4.27;;;3.10;99.90;;;;;;5072473;28;20217;-86
2021/03/19 02:24:27;;;;;;;5.90;2.13;;;3.10;99.90;;;;;;5072028;28;20259;-85
2021/03/19 02:27:31;;;;;;;5.53;2.00;;;3.00;99.90;;;;;;5072211;28;20197;-85
2021/03/19 02:30:34;;;;;;;10.67;2.37;;;3.00;99.90;;;;;;5072374;28;20201;-85
2021/03/19 02:33:02;;;;;;;3.60;2.07;;;3.00;99.90;;;;;;5070578;28;20201;-83
2021/03/19 02:35:28;;;;;;;7.73;2.30;;;3.00;99.90;;;;;;5071279;28;20194;-85
2021/03/19 02:37:55;;;;;;;6.50;2.10;;;2.90;99.90;;;;;;5085980;28;20212;-84
2021/03/19 02:40:23;;;;;;;4.50;1.80;;;3.00;99.90;;;;;;5090123;28;20764;-84
2021/03/19 02:42:51;;;;;;;8.90;3.10;;;3.00;99.90;;;;;;5090368;28;20203;-83
2021/03/19 02:45:20;;;;;;;8.67;3.80;;;2.90;99.90;;;;;;5091078;28;20200;-85
2021/03/19 02:47:46;;;;;;;6.20;2.17;;;2.80;99.90;;;;;;5090537;28;20222;-81
2021/03/19 02:50:14;;;;;;;3.50;2.00;;;2.80;99.90;;;;;;5090562;28;20476;-85
2021/03/19 02:52:42;;;;;;;6.23;1.77;;;2.80;99.90;;;;;;5090595;28;20216;-80
2021/03/19 02:55:12;;;;;;;6.07;2.33;;;2.80;99.90;;;;;;5089630;28;20237;-84
2021/03/19 02:57:39;;;;;;;8.87;2.73;;;2.80;99.90;;;;;;5077712;28;20222;-82
2021/03/19 03:00:11;;;;;;;7.10;2.10;;;2.80;99.90;;;;;;5090986;28;20205;-83
2021/03/19 03:02:37;;;;;;;4.60;1.90;;;2.80;99.90;;;;;;5086623;28;20207;-82
2021/03/19 03:05:04;;;;;;;7.60;2.30;;;2.80;99.90;;;;;;5087394;28;20597;-84
2021/03/19 03:07:32;;;;;;;5.10;1.93;;;2.80;99.90;;;;;;5065241;28;20517;-83
2021/03/19 03:10:00;;;;;;;6.33;2.40;;;2.70;99.90;;;;;;5067343;28;20205;-85
2021/03/19 03:12:27;;;;;;;10.47;2.33;;;2.60;99.90;;;;;;5067448;28;20458;-79
2021/03/19 03:14:54;;;;;;;6.70;2.50;;;2.60;99.90;;;;;;5067563;28;20229;-81
2021/03/19 03:17:21;;;;;;;4.90;1.93;;;2.60;99.90;;;;;;5087645;28;20211;-84
2021/03/19 03:19:47;;;;;;;3.20;1.73;;;2.60;99.90;;;;;;5089005;28;20605;-83
2021/03/19 03:22:14;;;;;;;3.40;2.00;;;2.50;99.90;;;;;;5073386;28;20256;-83
2021/03/19 03:24:41;;;;;;;5.10;1.80;;;2.40;99.90;;;;;;5068105;28;20197;-79
2021/03/19 03:27:08;;;;;;;4.23;2.20;;;2.40;99.90;;;;;;5089110;28;20308;-81
2021/03/19 03:29:36;;;;;;;5.07;1.40;;;2.40;99.90;;;;;;5069921;28;20213;-84
2021/03/19 03:32:04;;;;;;;3.37;2.07;;;2.30;99.90;;;;;;5067938;28;20197;-80
2021/03/19 03:34:31;;;;;;;3.40;1.80;;;2.30;99.90;;;;;;5066805;28;20194;-82
2021/03/19 03:36:58;;;;;;;5.03;2.07;;;2.30;99.90;;;;;;5067674;28;20247;-81
2021/03/19 03:39:27;;;;;;;3.43;1.70;;;2.20;99.90;;;;;;5066379;28;20209;-81
2021/03/19 03:41:56;;;;;;;4.57;1.80;;;2.10;99.90;;;;;;5066764;28;20236;-79
2021/03/19 03:44:22;;;;;;;4.80;1.73;;;2.10;99.90;;;;;;5067227;28;20205;-83
2021/03/19 03:46:49;;;;;;;1.87;1.47;;;2.00;99.90;;;;;;5075134;28;20259;-83
2021/03/19 03:49:17;;;;;;;3.70;1.77;;;2.00;99.90;;;;;;5087591;28;20197;-83
2021/03/19 03:51:44;;;;;;;2.50;1.37;;;1.90;99.90;;;;;;5071244;28;20262;-84
2021/03/19 03:54:11;;;;;;;2.30;1.50;;;1.90;99.90;;;;;;5063931;28;20260;-80
2021/03/19 03:56:37;;;;;;;5.87;1.80;;;1.80;99.90;;;;;;5066143;28;20205;-79
2021/03/19 03:59:05;;;;;;;4.97;1.67;;;1.80;99.90;;;;;;5068385;28;20266;-81
2021/03/19 04:01:32;;;;;;;4.17;1.80;;;1.80;99.90;;;;;;5067278;28;20540;-81
2021/03/19 04:03:59;;;;;;;5.10;2.03;;;1.80;99.90;;;;;;5068164;28;20317;-78
2021/03/19 04:06:25;;;;;;;3.23;1.73;;;1.80;99.90;;;;;;5067048;28;20262;-83
2021/03/19 04:08:52;;;;;;;3.03;1.40;;;1.70;99.90;;;;;;5067245;28;20205;-83
2021/03/19 04:11:20;;;;;;;5.70;1.97;;;1.70;99.90;;;;;;5067542;28;20205;-83
2021/03/19 04:13:48;;;;;;;3.70;1.50;;;1.70;99.90;;;;;;5067066;28;20277;-83
2021/03/19 04:16:16;;;;;;;4.00;1.50;;;1.60;99.90;;;;;;5067713;28;20221;-82
2021/03/19 04:18:42;;;;;;;5.50;1.90;;;1.60;99.90;;;;;;5065666;28;20201;-83
2021/03/19 04:21:10;;;;;;;4.23;1.50;;;1.60;99.90;;;;;;5067157;28;20221;-81
2021/03/19 04:23:39;;;;;;;6.07;1.97;;;1.60;99.90;;;;;;5065155;28;20259;-83
2021/03/19 04:26:08;;;;;;;7.13;2.37;;;1.60;99.90;;;;;;5067861;28;20220;-80
2021/03/19 04:28:37;;;;;;;5.97;2.00;;;1.60;99.90;;;;;;5074403;28;20278;-81
2021/03/19 04:31:05;;;;;;;4.60;2.00;;;1.60;99.90;;;;;;5086339;28;21010;-79
2021/03/19 04:33:34;;;;;;;9.93;3.17;;;1.60;99.90;;;;;;5086806;28;20216;-77
2021/03/19 04:36:11;;;;;;;5.30;2.13;;;1.60;99.90;;;;;;5071184;28;20232;-82
2021/03/19 04:38:38;;;;;;;4.00;1.93;;;1.60;99.90;;;;;;5065785;28;20322;-80
2021/03/19 04:41:05;;;;;;;6.60;2.00;;;1.60;99.90;;;;;;5066109;28;20529;-79
2021/03/19 04:43:33;;;;;;;6.93;2.50;;;1.70;99.90;;;;;;5064633;28;20204;-77
2021/03/19 04:45:59;;;;;;;5.70;2.03;;;1.70;99.90;;;;;;5064985;28;20204;-81
2021/03/19 04:48:26;;;;;;;5.00;1.60;;;1.70;99.90;;;;;;5065773;28;20209;-81
2021/03/19 04:50:53;;;;;;;7.40;1.93;;;1.70;99.90;;;;;;5066063;28;20194;-82
2021/03/19 04:53:19;;;;;;;5.17;1.87;;;1.70;99.90;;;;;;5065537;28;20212;-78
2021/03/19 04:55:45;;;;;;;10.73;3.30;;;1.70;99.90;;;;;;5065247;28;20241;-81
2021/03/19 04:58:12;;;;;;;9.37;2.37;;;1.70;99.90;;;;;;5066619;28;20216;-82
2021/03/19 05:00:38;;;;;;;5.23;2.40;;;1.70;99.90;;;;;;5065496;28;20220;-82
2021/03/19 05:03:04;;;;;;;6.87;2.20;;;1.70;99.90;;;;;;5064837;28;20201;-77
2021/03/19 05:05:33;;;;;;;6.13;2.60;;;1.70;99.90;;;;;;5074240;28;20209;-81
2021/03/19 05:08:02;;;;;;;6.83;2.97;;;1.70;99.90;;;;;;5085557;28;20648;-81
2021/03/19 05:10:30;;;;;;;6.50;2.37;;;1.70;99.90;;;;;;5084649;28;20250;-80
2021/03/19 05:12:57;;;;;;;6.00;2.00;;;1.60;99.90;;;;;;5083804;28;20467;-77
2021/03/19 05:15:27;;;;;;;4.83;2.17;;;1.60;99.90;;;;;;5084821;28;20687;-76
2021/03/19 05:17:53;;;;;;;11.00;3.77;;;1.60;99.90;;;;;;5084912;28;20640;-81
2021/03/19 05:20:20;;;;;;;4.20;2.20;;;1.60;99.90;;;;;;5079306;28;20201;-81
2021/03/19 05:22:46;;;;;;;10.53;3.00;;;1.60;99.90;;;;;;5064893;28;20212;-78
2021/03/19 05:25:17;;;;;;;3.17;1.90;;;1.60;99.90;;;;;;5063359;28;20208;-77
2021/03/19 05:27:44;;;;;;;4.67;2.00;;;1.50;99.90;;;;;;5063874;28;20201;-82
2021/03/19 05:30:12;;;;;;;4.73;2.10;;;1.50;99.90;;;;;;5064478;28;20621;-80
2021/03/19 05:32:39;;;;;;;4.00;2.20;;;1.50;99.90;;;;;;5063214;28;20193;-78
2021/03/19 05:35:07;;;;;;;5.47;2.37;;;1.50;99.90;;;;;;5063375;28;20213;-79
2021/03/19 05:37:33;;;;;;;6.83;2.23;;;1.40;99.90;;;;;;5063236;28;20209;-80
2021/03/19 05:40:00;;;;;;;7.83;2.30;;;1.40;99.90;;;;;;5065244;28;20201;-81
2021/03/19 05:42:29;;;;;;;7.93;2.23;;;1.40;99.90;;;;;;5064650;28;20239;-81
2021/03/19 05:45:00;;;;;;;5.77;2.30;;;1.40;99.90;;;;;;5064789;28;20201;-80
2021/03/19 05:47:27;;;;;;;3.50;2.37;;;1.40;99.90;;;;;;5070185;28;20209;-81
2021/03/19 05:49:58;;;;;;;4.57;2.60;;;1.40;99.90;;;;;;5084377;28;20200;-80
2021/03/19 05:52:32;;;;;;;5.73;2.63;;;1.40;99.90;;;;;;5084212;28;20912;-81
2021/03/19 05:54:59;;;;;;;5.03;3.30;;;1.40;99.90;;;;;;5083808;28;20284;-79
2021/03/19 05:57:30;;;;;;;6.37;2.37;;;1.40;99.90;;;;;;5083736;28;20258;-79
2021/03/19 05:59:58;;;;;;;7.03;2.43;;;1.40;99.90;;;;;;5083324;28;20212;-81
2021/03/19 06:02:28;;;;;;;4.63;2.37;;;1.30;99.90;;;;;;5082395;28;20232;-78
2021/03/19 06:05:13;;;;;;;3.40;2.30;;;1.30;99.90;;;;;;5075480;28;20200;-78
2021/03/19 06:07:43;;;;;;;8.23;2.47;;;1.30;99.90;;;;;;5063327;28;20590;-79
2021/03/19 06:10:30;;;;;;;4.50;2.20;;;1.30;99.90;;;;;;5071732;28;20208;-81
2021/03/19 06:13:12;;;;;;;3.87;2.60;;;1.30;99.90;;;;;;5082840;28;20263;-81
2021/03/19 06:15:41;;;;;;;5.27;2.70;;;1.30;99.90;;;;;;5085825;28;20209;-79
2021/03/19 06:18:19;;;;;;;4.57;2.53;;;1.30;99.90;;;;;;5083541;28;20649;-80
2021/03/19 06:21:05;;;;;;;5.77;3.30;;;1.40;99.90;;;;;;5066973;28;20302;-80
2021/03/19 06:23:32;;;;;;;8.93;2.83;;;1.40;99.90;;;;;;5065860;28;20209;-81
2021/03/19 06:26:03;;;;;;;4.13;2.40;;;1.40;99.90;;;;;;5067295;28;20216;-78
2021/03/19 06:28:33;;;;;;;3.70;2.13;;;1.40;99.90;;;;;;5070408;28;20198;-78
2021/03/19 06:31:19;;;;;;;6.30;3.07;;;1.40;99.90;;;;;;5087581;28;20197;-78
2021/03/19 06:33:45;;;;;;;3.67;2.60;;;1.40;99.90;;;;;;5087449;28;20200;-79
2021/03/19 06:36:16;;;;;;;4.13;2.83;;;1.40;99.90;;;;;;5085145;28;20789;-79
2021/03/19 06:38:45;;;;;;;4.13;2.67;;;1.40;99.90;;;;;;5067964;28;20304;-79
2021/03/19 06:41:19;;;;;;;7.87;3.03;;;1.50;99.90;;;;;;5067845;28;20221;-79
2021/03/19 06:43:47;;;;;;;5.50;2.93;;;1.50;99.90;;;;;;5082359;28;20212;-81
2021/03/19 06:46:16;;;;;;;6.30;3.17;;;1.50;99.90;;;;;;5086718;28;20591;-81
2021/03/19 06:48:44;;;;;;;6.57;3.17;;;1.60;99.90;;;;;;5088674;28;20201;-78
2021/03/19 06:51:22;;;;;;;7.57;3.53;;;1.60;99.90;;;;;;5083674;28;20262;-80
2021/03/19 06:53:56;;;;;;;9.10;3.60;;;1.80;99.90;;;;;;5067474;28;20193;-81
2021/03/19 06:56:23;;;;;;;6.27;3.23;;;1.90;99.90;;;;;;5066402;28;20258;-81
2021/03/19 06:58:50;;;;;;;10.20;3.40;;;1.90;99.90;;;;;;5071022;28;20200;-81
2021/03/19 07:01:36;;;;;;;5.43;3.53;;;2.00;99.90;;;;;;5085063;28;20228;-79
2021/03/19 07:04:41;;;;;;;10.50;3.83;;;2.00;99.90;;;;;;5086274;28;20193;-79
2021/03/19 07:07:36;;;;;;;15.23;3.57;;;2.30;99.90;;;;;;5063125;28;20216;-78
2021/03/19 07:10:20;;;;;;;9.10;3.87;;;2.40;99.90;;;;;;5064233;28;20643;-80
2021/03/19 07:12:50;;;;;;;9.77;4.10;;;2.50;99.90;;;;;;5062994;28;20205;-79
2021/03/19 07:15:29;;;;;;;8.83;3.73;;;2.60;99.90;;;;;;5064194;28;20201;-81
2021/03/19 07:17:58;;;;;;;11.93;3.90;;;2.70;99.90;;;;;;5074870;28;20208;-81
2021/03/19 07:21:13;;;;;;;13.40;5.27;;;2.80;99.90;;;;;;5085926;28;20208;-80
2021/03/19 07:23:51;;;;;;;11.70;4.90;;;2.90;99.90;;;;;;5003877;28;20184;-79
2021/03/19 07:26:19;;;;;;;12.20;4.30;;;3.00;99.90;;;;;;5082282;28;20217;-81
2021/03/19 07:29:30;;;;;;;7.47;3.80;;;3.10;99.90;;;;;;5085555;28;20200;-81
2021/03/19 07:32:20;;;;;;;15.70;7.00;;;3.40;99.90;;;;;;5085741;28;20201;-81
2021/03/19 07:35:02;;;;;;;11.20;4.77;;;3.50;99.90;;;;;;5070999;28;20221;-80
2021/03/19 07:37:44;;;;;;;13.00;4.33;;;3.50;99.90;;;;;;5064938;28;20220;-81
2021/03/19 07:40:18;;;;;;;9.37;3.53;;;3.60;99.90;;;;;;5080867;28;20624;-81
2021/03/19 07:43:18;;;;;;;13.60;3.67;;;3.80;99.90;;;;;;5085519;28;20208;-80
2021/03/19 07:45:53;;;;;;;8.30;4.00;;;3.90;99.90;;;;;;5065440;28;20393;-83
2021/03/19 07:48:29;;;;;;;12.83;4.70;;;3.90;99.90;;;;;;5072161;28;20610;-82
2021/03/19 07:51:26;;;;;;;10.30;5.00;;;4.00;99.90;;;;;;5077764;28;20188;-80
2021/03/19 07:54:02;;;;;;;14.00;5.23;;;4.10;99.90;;;;;;5087765;28;20201;-79
2021/03/19 07:56:38;;;;;;;10.90;4.03;;;4.30;99.90;;;;;;5066743;28;20197;-77
2021/03/19 07:59:14;;;;;;;8.77;4.33;;;4.40;99.90;;;;;;5066820;28;20228;-79
2021/03/19 08:01:45;;;;;;;15.27;5.20;;;4.50;99.90;;;;;;5065092;28;20282;-79
2021/03/19 08:04:29;;;;;;;9.40;4.10;;;4.60;99.90;;;;;;5065984;28;20204;-81
2021/03/19 08:06:57;;;;;;;10.60;3.93;;;4.70;99.90;;;;;;5067385;28;20211;-80
2021/03/19 08:09:36;;;;;;;10.87;4.73;;;4.80;99.90;;;;;;5066594;28;20194;-78
2021/03/19 08:12:10;;;;;;;6.63;3.47;;;4.90;99.90;;;;;;5045354;28;20486;-85
2021/03/19 08:14:47;;;;;;;8.30;3.57;;;4.90;99.90;;;;;;5068741;28;20521;-83
2021/03/19 08:17:26;;;;;;;14.07;4.33;;;5.00;99.90;;;;;;5069591;28;20243;-84
2021/03/19 08:20:09;;;;;;;8.93;3.87;;;5.10;99.90;;;;;;5070394;28;20209;-86
2021/03/19 08:22:41;;;;;;;6.00;3.57;;;5.20;99.90;;;;;;5068053;28;20255;-86
2021/03/19 08:25:14;;;;;;;9.50;3.70;;;5.30;99.90;;;;;;5076489;28;20224;-85
2021/03/19 08:31:26;;;;;;;10.10;3.70;;;5.40;99.90;;;;;;4943229;28;20265;-81
2021/03/19 08:34:11;;;;;;;9.83;3.87;;;5.60;99.90;;;;;;4985425;28;20207;-76
2021/03/19 08:36:42;;;;;;;9.77;4.40;;;5.70;99.90;;;;;;5081012;28;20243;-81
2021/03/19 08:39:18;;;;;;;10.50;4.43;;;5.70;99.90;;;;;;5086843;28;20192;-86
2021/03/19 08:41:47;;;;;;;9.27;3.67;;;5.80;99.90;;;;;;5085212;28;20226;-76
2021/03/19 08:44:16;;;;;;;7.80;3.07;;;5.90;99.90;;;;;;5067483;28;20205;-79
2021/03/19 08:46:47;;;;;;;9.80;3.67;;;6.00;99.90;;;;;;5065767;28;20556;-81
2021/03/19 08:49:30;;;;;;;7.97;4.07;;;6.10;99.90;;;;;;5064419;28;20206;-76
2021/03/19 08:51:58;;;;;;;10.70;3.40;;;6.20;99.90;;;;;;5077829;28;20219;-79
2021/03/19 08:54:29;;;;;;;7.37;3.33;;;6.40;99.90;;;;;;5086173;28;20651;-78
2021/03/19 08:57:11;;;;;;;8.30;3.57;;;6.50;99.90;;;;;;5087190;28;20205;-87
2021/03/19 08:59:49;;;;;;;7.67;3.17;;;6.70;99.90;;;;;;5074025;28;20278;-88
2021/03/19 09:02:48;;;;;;;6.63;2.40;;;6.80;99.90;;;;;;5064248;28;20793;-79
2021/03/19 09:05:32;;;;;;;5.73;2.87;;;6.90;99.90;;;;;;5060825;28;20201;-88
2021/03/19 09:08:15;;;;;;;9.53;2.30;;;7.10;99.90;;;;;;5069205;28;20581;-89
2021/03/19 09:11:13;;;;;;;7.53;2.40;;;7.20;99.90;;;;;;5069394;28;20209;-88
2021/03/19 09:14:13;;;;;;;10.97;2.90;;;7.30;99.90;;;;;;5064161;28;20224;-76
2021/03/19 09:16:54;;;;;;;7.50;2.73;;;7.30;99.90;;;;;;5031622;28;20208;-85
2021/03/19 09:19:59;;;;;;;9.13;3.27;;;7.40;99.90;;;;;;5064896;28;20863;-78
2021/03/19 09:22:36;;;;;;;4.03;2.53;;;7.50;99.90;;;;;;5065340;28;20715;-84
2021/03/19 09:25:41;;;;;;;4.47;3.43;;;7.60;99.90;;;;;;5065694;28;20239;-75
2021/03/19 09:28:34;;;;;;;13.13;3.40;;;7.70;99.90;;;;;;5002442;28;20203;-85
2021/03/19 09:31:08;;;;;;;6.27;2.50;;;7.80;99.90;;;;;;5068246;28;20200;-85
2021/03/19 09:34:07;;;;;;;5.60;2.60;;;7.80;99.90;;;;;;5071757;28;20208;-81
2021/03/19 09:37:08;;;;;;;6.93;2.40;;;7.90;99.90;;;;;;5084332;28;20205;-80
2021/03/19 09:39:56;;;;;;;6.13;2.53;;;7.90;99.90;;;;;;5077753;28;20201;-81
2021/03/19 09:42:57;;;;;;;4.67;2.27;;;7.90;99.90;;;;;;5064743;28;20528;-85
2021/03/19 09:45:40;;;;;;;5.17;2.10;;;8.00;99.90;;;;;;5063478;28;20601;-77
2021/03/19 09:48:38;;;;;;;3.53;2.53;;;8.00;99.90;;;;;;5064123;28;20255;-77
2021/03/19 09:51:33;;;;;;;5.10;2.40;;;8.10;99.90;;;;;;5077927;28;20207;-78
2021/03/19 09:54:20;;;;;;;5.77;2.47;;;8.10;99.90;;;;;;5067828;28;20216;-81
2021/03/19 09:56:47;;;;;;;5.33;2.83;;;8.10;99.90;;;;;;5070576;28;20578;-78
2021/03/19 09:59:21;;;;;;;4.60;2.43;;;8.00;99.90;;;;;;5085625;28;20242;-82
2021/03/19 10:01:48;;;;;;;5.43;2.10;;;8.00;99.90;;;;;;5102322;28;20231;-80
2021/03/19 10:04:30;;;;;;;16.03;2.93;;;7.90;99.90;;;;;;5095005;28;20581;-82
2021/03/19 10:06:57;;;;;;;5.80;2.53;;;7.90;99.90;;;;;;5064201;28;20204;-79
2021/03/19 10:09:25;;;;;;;8.27;2.53;;;7.90;99.90;;;;;;5080016;28;20212;-86
2021/03/19 10:12:09;;;;;;;4.60;2.30;;;7.90;99.90;;;;;;5093743;28;20579;-77
2021/03/19 10:14:38;;;;;;;4.33;2.57;;;8.00;99.90;;;;;;5104883;28;20355;-76
2021/03/19 10:17:27;;;;;;;5.17;2.20;;;8.20;99.90;;;;;;5106045;28;20211;-76
2021/03/19 10:19:57;;;;;;;7.03;2.30;;;8.30;99.90;;;;;;5075822;28;20243;-77
2021/03/19 10:22:34;;;;;;;6.93;2.33;;;8.60;99.90;;;;;;5084779;28;20285;-77
2021/03/19 10:25:15;;;;;;;4.80;2.60;;;8.80;99.90;;;;;;5070321;28;20239;-81
2021/03/19 10:27:44;;;;;;;5.73;2.30;;;8.80;99.90;;;;;;5085474;28;20204;-81
2021/03/19 10:30:18;;;;;;;6.27;2.33;;;8.80;99.90;;;;;;5050291;22;20252;-78
2021/03/19 10:32:45;;;;;;;4.33;2.00;;;8.90;99.90;;;;;;5047437;28;20316;-77
2021/03/19 10:35:18;;;;;;;3.43;2.30;;;9.10;99.90;;;;;;5041258;28;20214;-77
2021/03/19 10:37:51;;;;;;;4.13;2.40;;;9.20;99.90;;;;;;5024277;28;20221;-78
2021/03/19 10:40:24;;;;;;;3.53;2.00;;;9.20;99.90;;;;;;5025183;28;20293;-76
2021/03/19 10:42:57;;;;;;;2.57;1.80;;;9.30;99.90;;;;;;5025763;28;20226;-82
2021/03/19 10:45:33;;;;;;;3.77;1.93;;;9.40;99.90;;;;;;5026771;28;20203;-82
2021/03/19 10:48:19;;;;;;;3.83;2.00;;;9.60;99.90;;;;;;5044652;28;20559;-79
2021/03/19 10:50:58;;;;;;;3.27;2.20;;;9.60;99.90;;;;;;5052555;28;20213;-80
2021/03/19 10:53:36;;;;;;;5.13;2.10;;;9.50;99.90;;;;;;5063645;28;20208;-79
2021/03/19 10:56:03;;;;;;;2.70;1.90;;;9.60;99.90;;;;;;5064767;28;20208;-79
2021/03/19 10:58:39;;;;;;;3.07;1.70;;;9.80;99.90;;;;;;5063837;28;20278;-79
2021/03/19 11:01:29;;;;;;;2.87;1.70;;;9.90;99.90;;;;;;5045406;28;20723;-84
2021/03/19 11:03:57;;;;;;;4.13;1.80;;;9.90;99.90;;;;;;5047125;28;20244;-83
2021/03/19 11:06:34;;;;;;;5.20;1.83;;;9.90;99.90;;;;;;5048645;28;20970;-78
2021/03/19 11:09:15;;;;;;;2.93;1.87;;;9.90;99.90;;;;;;5045554;28;20197;-78
2021/03/19 11:11:43;;;;;;;2.97;1.80;;;10.00;99.90;;;;;;5046313;28;20221;-82
2021/03/19 11:14:11;;;;;;;3.77;1.80;;;10.10;99.90;;;;;;5047139;28;20222;-81
2021/03/19 11:16:40;;;;;;;2.53;1.60;;;10.20;99.90;;;;;;5050781;28;20216;-86
2021/03/19 11:19:11;;;;;;;3.63;1.50;;;10.20;99.90;;;;;;5066723;28;20275;-79
2021/03/19 11:21:39;;;;;;;2.43;1.67;;;10.40;99.90;;;;;;5063877;28;20236;-82
2021/03/19 11:24:21;;;;;;;1.43;1.33;;;10.40;99.90;;;;;;5068553;28;20229;-80
2021/03/19 11:27:03;;;;;;;2.97;1.83;;;10.50;99.90;;;;;;5064676;28;20254;-82
2021/03/19 11:29:35;;;;;;;2.33;1.40;;;10.60;99.90;;;;;;5053550;28;20241;-80
2021/03/19 11:32:05;;;;;;;2.23;1.33;;;10.50;99.90;;;;;;5069223;28;20197;-79
2021/03/19 11:34:36;;;;;;;2.83;1.60;;;10.60;99.90;;;;;;5065777;28;20957;-79
2021/03/19 11:37:06;;;;;;;1.87;1.67;;;10.70;99.90;;;;;;5063699;28;20202;-78
2021/03/19 11:39:52;;;;;;;1.50;1.40;;;10.80;99.90;;;;;;5065716;28;20205;-81
2021/03/19 11:42:20;;;;;;;6.90;2.03;;;11.00;99.90;;;;;;5144261;23;20247;-77
2021/03/19 11:44:49;;;;;;;3.40;1.60;;;11.10;99.90;;;;;;5023850;28;20233;-77
2021/03/19 11:47:19;;;;;;;3.20;1.90;;;11.20;99.90;;;;;;5003978;28;20207;-82
2021/03/19 11:49:47;;;;;;;2.20;1.73;;;11.00;99.90;;;;;;5007591;28;20470;-78
2021/03/19 11:52:15;;;;;;;4.30;2.17;;;11.00;99.90;;;;;;5004780;28;20215;-80
2021/03/19 11:54:42;;;;;;;2.63;1.70;;;11.10;99.90;;;;;;5003121;28;20206;-76
2021/03/19 11:57:09;;;;;;;6.37;1.90;;;10.90;99.90;;;;;;5004753;28;20612;-77
2021/03/19 11:59:36;;;;;;;3.83;2.10;;;10.80;99.90;;;;;;5010064;28;20207;-78
2021/03/19 12:02:05;;;;;;;6.73;2.43;;;10.50;99.90;;;;;;5004780;28;20219;-82
2021/03/19 12:04:32;;;;;;;4.07;2.30;;;10.40;99.90;;;;;;5007911;28;20509;-80
2021/03/19 12:06:59;;;;;;;2.67;1.77;;;10.30;99.90;;;;;;5005393;28;20293;-81
2021/03/19 12:09:27;;;;;;;3.93;1.77;;;10.10;99.90;;;;;;5024658;28;20217;-79
2021/03/19 12:11:54;;;;;;;3.53;1.93;;;10.20;99.90;;;;;;5024498;28;20205;-77
2021/03/19 12:14:22;;;;;;;3.77;2.10;;;10.20;99.90;;;;;;5022814;28;20210;-77
2021/03/19 12:16:49;;;;;;;4.00;2.63;;;10.40;99.90;;;;;;5008989;28;20278;-76
2021/03/19 12:19:16;;;;;;;3.23;1.60;;;10.60;99.90;;;;;;5004018;28;20196;-78
2021/03/19 12:21:43;;;;;;;3.63;1.67;;;10.80;99.90;;;;;;5002892;28;20234;-79
2021/03/19 12:24:10;;;;;;;3.73;2.37;;;10.90;99.90;;;;;;5003619;28;20209;-76
2021/03/19 12:26:37;;;;;;;5.70;2.00;;;10.90;99.90;;;;;;5002499;28;20207;-78
2021/03/19 12:29:03;;;;;;;4.63;2.30;;;10.90;99.90;;;;;;5002922;28;20215;-77
2021/03/19 12:31:29;;;;;;;4.03;1.70;;;10.60;99.90;;;;;;5002553;28;20316;-77
2021/03/19 12:33:56;;;;;;;6.07;1.77;;;10.60;99.90;;;;;;5003207;28;20230;-77
2021/03/19 12:36:22;;;;;;;4.77;1.90;;;10.60;99.90;;;;;;5002349;28;20203;-79
2021/03/19 12:38:48;;;;;;;3.90;1.70;;;10.70;99.90;;;;;;5002841;28;20261;-77
2021/03/19 12:41:16;;;;;;;2.73;1.70;;;10.80;99.90;;;;;;5001923;28;20206;-77
2021/03/19 12:43:42;;;;;;;2.60;2.00;;;10.80;99.90;;;;;;5002339;28;20274;-76
2021/03/19 12:46:08;;;;;;;3.13;2.40;;;11.00;99.90;;;;;;5003134;28;20208;-77
2021/03/19 12:48:35;;;;;;;6.67;1.80;;;11.10;99.90;;;;;;5002523;28;20200;-75
2021/03/19 12:51:01;;;;;;;4.23;2.00;;;11.10;99.90;;;;;;5012801;28;20198;-77
2021/03/19 12:53:29;;;;;;;3.83;1.97;;;11.10;99.90;;;;;;5022553;28;20207;-78
2021/03/19 12:55:56;;;;;;;4.17;2.20;;;11.10;99.90;;;;;;5013361;28;20211;-78
2021/03/19 12:58:23;;;;;;;5.17;2.27;;;11.30;99.90;;;;;;5002574;28;20253;-78
2021/03/19 13:00:50;;;;;;;2.63;1.70;;;11.30;99.90;;;;;;5015573;28;20301;-76
2021/03/19 13:03:16;;;;;;;2.97;1.40;;;11.20;99.90;;;;;;5021028;28;20230;-77
2021/03/19 13:05:43;;;;;;;1.83;1.63;;;11.30;99.90;;;;;;5020797;28;20211;-77
2021/03/19 13:08:11;;;;;;;1.90;1.60;;;11.40;99.90;;;;;;5010391;28;20658;-77
2021/03/19 13:10:39;;;;;;;2.60;1.60;;;11.50;99.90;;;;;;5001164;28;20203;-78
2021/03/19 13:13:05;;;;;;;2.77;1.77;;;11.60;99.90;;;;;;5001245;28;20281;-77
2021/03/19 13:15:35;;;;;;;3.13;1.43;;;11.60;99.90;;;;;;5020861;28;20934;-77
2021/03/19 13:18:02;;;;;;;1.97;1.67;;;11.60;99.90;;;;;;5018498;28;20523;-78
2021/03/19 13:20:30;;;;;;;3.37;1.60;;;11.50;99.90;;;;;;5001040;28;20199;-79
2021/03/19 13:22:57;;;;;;;1.83;1.47;;;11.30;99.90;;;;;;5002259;28;20730;-77
2021/03/19 13:25:26;;;;;;;4.17;1.40;;;11.20;99.90;;;;;;5003875;28;20210;-77
2021/03/19 13:27:53;;;;;;;5.10;1.90;;;11.20;99.90;;;;;;5022772;28;20221;-76
2021/03/19 13:30:22;;;;;;;3.50;1.60;;;11.10;99.90;;;;;;5027092;28;20831;-81
2021/03/19 13:32:49;;;;;;;2.60;1.83;;;11.10;99.90;;;;;;5027694;28;20210;-80